Ridge, Texas
Current Conditions -  °F | °C
As of 9:55 PM on Saturday 24 Jan 2015 (Local Time) from KLHB Reporting Station
Clear Clear  
Wind Chill: 46°   Ceiling: Unl
Heat Index: 46°   Visibility: 10mi
Dew Point: 36°   Wind: 0mph
Humidity: 69%   Direction: NA
Pressure: 30.08"   Gusts: NA
Location:  31.0654°N, 96.4194°W
Report Text: KLHB 250355Z AUTO 00000KT 10SM CLR 08/02 A3008 RMK AO2 T00760022
Loading
Personal Weather Stations






























Interactive Weather Map New forecast layout! Learn more

10-Day Weather Forecast

Advertisements
Track Severe Weather on mobile